Terminal Aerodrome Forecast
Issued by NWS

Home | Current Version | Previous Version | Text Only | Print | Product List | Glossary On
Versions: 1 2 3 4 5 6 7 8 9 10 11 12 13
020
FTUS45 KRIW 230520
TAFCPR
TAF
KCPR 230520Z 2306/2406 02015G23KT P6SM VCSH SCT060 BKN080
     FM230800 03014KT P6SM SCT060
     FM231400 05007KT P6SM FEW060
     FM231900 34011KT P6SM SKC
     FM240100 06010KT P6SM SKC=

USA.gov is the U.S. government's official web portal to all federal, state and local government web resources and services.